createdAt,value
2022-10-19T00:00:00.738Z,100.00
2022-10-19T00:02:29.066Z,100.00
2022-10-19T00:04:56.845Z,100.00
2022-10-19T00:07:24.504Z,100.00
2022-10-19T00:09:52.409Z,100.00
2022-10-19T00:12:20.088Z,100.00
2022-10-19T00:14:47.793Z,100.00
2022-10-19T00:17:16.925Z,100.00
2022-10-19T00:19:44.580Z,100.00
2022-10-19T00:22:14.008Z,100.00
2022-10-19T00:24:42.095Z,100.00
2022-10-19T00:27:09.929Z,100.00
2022-10-19T00:29:37.614Z,100.00
2022-10-19T00:32:05.525Z,100.00
2022-10-19T00:34:34.595Z,100.00
2022-10-19T00:37:02.362Z,100.00
2022-10-19T00:39:30.116Z,100.00
2022-10-19T00:41:57.798Z,100.00
2022-10-19T00:45:11.295Z,100.00
2022-10-19T00:47:39.586Z,100.00
2022-10-19T00:50:10.187Z,100.00
2022-10-19T00:52:38.219Z,100.00
2022-10-19T00:55:08.303Z,100.00
2022-10-19T00:57:36.697Z,100.00
2022-10-19T01:00:07.466Z,100.00
2022-10-19T01:02:35.764Z,100.00
2022-10-19T01:05:05.112Z,100.00
2022-10-19T01:07:34.542Z,100.00
2022-10-19T01:10:03.017Z,100.00
2022-10-19T01:12:47.652Z,100.00
2022-10-19T01:15:24.657Z,100.00
2022-10-19T01:18:04.577Z,100.00
2022-10-19T01:20:52.634Z,100.00
2022-10-19T01:23:41.227Z,100.00
2022-10-19T01:26:24.944Z,100.00
2022-10-19T01:29:09.504Z,100.00
2022-10-19T01:31:45.841Z,100.00
2022-10-19T01:34:19.583Z,100.00
2022-10-19T01:36:58.080Z,100.00
2022-10-19T01:39:29.991Z,100.00
2022-10-19T01:42:04.033Z,100.00
2022-10-19T01:44:40.840Z,100.00
2022-10-19T01:47:16.036Z,100.00
2022-10-19T01:49:49.385Z,100.00
2022-10-19T01:52:20.060Z,100.00
2022-10-19T01:54:51.180Z,100.00
2022-10-19T01:57:24.828Z,100.00
2022-10-19T01:59:54.873Z,100.00
2022-10-19T02:02:26.715Z,100.00
2022-10-19T02:04:56.071Z,100.00
2022-10-19T02:07:25.772Z,100.00
2022-10-19T02:09:53.509Z,100.00
2022-10-19T02:12:22.411Z,100.00
2022-10-19T02:14:57.513Z,100.00
2022-10-19T02:17:31.695Z,100.00
2022-10-19T02:20:00.437Z,100.00
2022-10-19T02:22:28.993Z,100.00
2022-10-19T02:24:56.691Z,100.00
2022-10-19T02:27:24.733Z,100.00
2022-10-19T02:29:53.189Z,100.00
2022-10-19T02:32:21.012Z,100.00
2022-10-19T02:34:50.220Z,100.00
2022-10-19T02:37:20.951Z,100.00
2022-10-19T02:39:51.210Z,100.00
2022-10-19T02:42:23.589Z,100.00
2022-10-19T02:44:57.947Z,100.00
2022-10-19T02:47:29.337Z,100.00
2022-10-19T02:49:58.472Z,100.00
2022-10-19T02:52:26.253Z,100.00
2022-10-19T02:54:53.926Z,100.00
2022-10-19T02:57:23.124Z,100.00
2022-10-19T02:59:50.975Z,100.00
2022-10-19T03:02:19.771Z,100.00
2022-10-19T03:07:22.598Z,100.00
2022-10-19T03:09:50.384Z,100.00
2022-10-19T03:12:18.181Z,100.00
2022-10-19T03:14:45.984Z,100.00
2022-10-19T03:17:13.941Z,100.00
2022-10-19T03:19:41.752Z,100.00
2022-10-19T03:22:09.486Z,100.00
2022-10-19T03:24:38.581Z,100.00
2022-10-19T03:27:06.365Z,100.00
2022-10-19T03:29:34.157Z,100.00
2022-10-19T03:32:01.841Z,100.00
2022-10-19T03:34:29.954Z,100.00
2022-10-19T03:36:59.098Z,100.00
2022-10-19T03:39:26.867Z,100.00
2022-10-19T03:41:55.936Z,100.00
2022-10-19T03:44:23.678Z,100.00
2022-10-19T03:46:51.411Z,100.00
2022-10-19T03:49:19.187Z,100.00
2022-10-19T03:51:47.419Z,100.00
2022-10-19T03:54:16.826Z,100.00
2022-10-19T03:56:45.430Z,100.00
2022-10-19T03:59:16.200Z,100.00
2022-10-19T04:01:46.351Z,100.00
2022-10-19T04:04:16.124Z,100.00
2022-10-19T04:06:46.421Z,100.00
2022-10-19T04:09:15.619Z,100.00
2022-10-19T04:11:43.546Z,100.00
2022-10-19T04:14:18.932Z,100.00
2022-10-19T04:16:56.165Z,100.00
2022-10-19T04:19:23.977Z,100.00
2022-10-19T04:21:51.688Z,100.00
2022-10-19T04:24:20.247Z,100.00
2022-10-19T04:26:49.976Z,100.00
2022-10-19T04:29:19.330Z,100.00
2022-10-19T04:31:49.494Z,100.00
2022-10-19T04:34:19.135Z,100.00
2022-10-19T04:36:47.061Z,100.00
2022-10-19T04:39:15.072Z,100.00
2022-10-19T04:41:42.776Z,100.00
2022-10-19T04:44:10.855Z,100.00
2022-10-19T04:46:38.775Z,100.00
2022-10-19T04:49:06.964Z,100.00
2022-10-19T04:51:36.141Z,100.00
2022-10-19T04:54:04.454Z,100.00
2022-10-19T04:56:32.873Z,100.00
2022-10-19T04:59:01.334Z,100.00
2022-10-19T05:01:30.616Z,100.00
2022-10-19T05:04:00.277Z,100.00
2022-10-19T05:06:28.823Z,100.00
2022-10-19T05:08:58.697Z,100.00
2022-10-19T05:11:27.044Z,100.00
2022-10-19T05:13:54.926Z,100.00
2022-10-19T05:16:24.790Z,100.00
2022-10-19T05:18:55.984Z,100.00
2022-10-19T05:21:23.985Z,100.00
2022-10-19T05:23:53.409Z,100.00
2022-10-19T05:26:24.807Z,100.00
2022-10-19T05:28:56.344Z,100.00
2022-10-19T05:31:25.890Z,100.00
2022-10-19T05:33:53.695Z,100.00
2022-10-19T05:36:25.436Z,100.00
2022-10-19T05:38:54.605Z,100.00
2022-10-19T05:41:25.169Z,100.00
2022-10-19T05:43:54.767Z,100.00
2022-10-19T05:46:22.891Z,100.00
2022-10-19T05:48:50.588Z,100.00
2022-10-19T05:51:22.125Z,100.00
2022-10-19T05:53:50.750Z,100.00
2022-10-19T05:56:20.875Z,100.00
2022-10-19T05:58:50.838Z,100.00
2022-10-19T06:01:20.317Z,100.00
2022-10-19T06:03:52.298Z,100.00
2022-10-19T06:06:20.408Z,100.00
2022-10-19T06:08:48.973Z,100.00
2022-10-19T06:11:19.400Z,100.00
2022-10-19T06:13:50.287Z,100.00
2022-10-19T06:16:20.564Z,100.00
2022-10-19T06:18:48.774Z,100.00
2022-10-19T06:21:17.952Z,100.00
2022-10-19T06:23:46.393Z,100.00
2022-10-19T06:26:15.354Z,100.00
2022-10-19T06:28:45.207Z,100.00
2022-10-19T06:31:14.673Z,100.00
2022-10-19T06:33:48.544Z,100.00
2022-10-19T06:36:20.314Z,100.00
2022-10-19T06:38:48.844Z,100.00
2022-10-19T06:41:16.586Z,100.00
2022-10-19T06:43:44.489Z,100.00
2022-10-19T06:46:15.506Z,100.00
2022-10-19T06:48:44.589Z,100.00
2022-10-19T06:51:13.545Z,100.00
2022-10-19T06:53:41.216Z,100.00
2022-10-19T06:56:09.596Z,100.00
2022-10-19T06:58:37.721Z,100.00
2022-10-19T07:01:07.499Z,100.00
2022-10-19T07:03:36.050Z,100.00
2022-10-19T07:06:07.486Z,100.00
2022-10-19T07:08:36.787Z,100.00
2022-10-19T07:11:06.582Z,100.00
2022-10-19T07:13:34.728Z,100.00
2022-10-19T07:16:05.577Z,100.00
2022-10-19T07:18:34.416Z,100.00
2022-10-19T07:21:06.061Z,100.00
2022-10-19T07:23:36.067Z,100.00
2022-10-19T07:26:09.652Z,100.00
2022-10-19T07:28:37.393Z,100.00
2022-10-19T07:31:09.660Z,100.00
2022-10-19T07:33:37.757Z,100.00
2022-10-19T07:36:08.952Z,100.00
2022-10-19T07:38:37.621Z,100.00
2022-10-19T07:41:07.112Z,100.00
2022-10-19T07:43:35.441Z,100.00
2022-10-19T07:46:05.441Z,100.00
2022-10-19T07:48:33.544Z,100.00
2022-10-19T07:51:03.253Z,96.31
2022-10-19T07:53:32.643Z,91.94
2022-10-19T07:56:06.949Z,88.59
2022-10-19T07:58:36.322Z,87.15
2022-10-19T08:01:05.438Z,85.48
2022-10-19T08:06:22.443Z,86.72
2022-10-19T08:08:52.440Z,85.47
2022-10-19T08:11:22.762Z,85.01
2022-10-19T08:13:51.063Z,84.71
2022-10-19T08:16:24.963Z,83.17
2022-10-19T08:18:53.996Z,82.91
2022-10-19T08:21:21.700Z,82.61
2022-10-19T08:23:50.724Z,84.47
2022-10-19T08:26:18.460Z,83.78
2022-10-19T08:28:46.278Z,85.41
2022-10-19T08:31:16.169Z,83.69
2022-10-19T08:33:44.482Z,86.21
2022-10-19T08:36:14.425Z,88.20
2022-10-19T08:38:44.654Z,88.96
2022-10-19T08:41:29.963Z,89.43
2022-10-19T08:44:09.348Z,87.99
2022-10-19T08:46:49.178Z,87.16
2022-10-19T08:49:20.036Z,84.27
2022-10-19T08:51:51.477Z,85.26
2022-10-19T08:54:19.494Z,83.87
2022-10-19T08:57:06.315Z,83.71
2022-10-19T08:59:40.137Z,80.86
2022-10-19T09:02:16.932Z,81.78
2022-10-19T09:04:49.867Z,78.43
2022-10-19T09:07:28.134Z,80.65
2022-10-19T09:09:59.479Z,78.45
2022-10-19T09:12:38.627Z,79.15
2022-10-19T09:15:12.398Z,77.45
2022-10-19T09:17:40.086Z,75.89
2022-10-19T09:20:17.404Z,76.40
2022-10-19T09:22:45.968Z,73.70
2022-10-19T09:25:20.455Z,73.21
2022-10-19T09:27:54.087Z,74.55
2022-10-19T09:30:24.226Z,75.94
2022-10-19T09:32:59.763Z,75.05
2022-10-19T09:35:31.611Z,74.39
2022-10-19T09:38:00.365Z,72.74
2022-10-19T09:40:29.969Z,75.38
2022-10-19T09:43:02.951Z,74.12
2022-10-19T09:45:37.141Z,73.55
2022-10-19T09:48:17.746Z,73.87
2022-10-19T09:50:47.106Z,72.69
2022-10-19T09:53:20.457Z,71.25
2022-10-19T09:55:52.272Z,66.48
2022-10-19T09:58:21.667Z,68.13
2022-10-19T10:00:51.500Z,66.91
2022-10-19T10:03:30.981Z,67.10
2022-10-19T10:06:03.389Z,69.70
2022-10-19T10:08:34.204Z,67.60
2022-10-19T10:11:09.184Z,67.18
2022-10-19T10:13:44.021Z,67.21
2022-10-19T10:16:18.541Z,66.05
2022-10-19T10:18:55.330Z,65.45
2022-10-19T10:21:26.385Z,67.58
2022-10-19T10:24:02.940Z,66.73
2022-10-19T10:26:30.796Z,65.51
2022-10-19T10:29:01.443Z,63.74
2022-10-19T10:31:31.504Z,65.73
2022-10-19T10:34:12.170Z,64.52
2022-10-19T10:36:52.261Z,65.22
2022-10-19T10:39:20.225Z,63.22
2022-10-19T10:41:50.075Z,63.97
2022-10-19T10:44:23.111Z,64.02
2022-10-19T10:46:56.757Z,62.54
2022-10-19T10:49:26.418Z,62.74
2022-10-19T10:51:56.528Z,63.68
2022-10-19T10:54:25.666Z,61.85
2022-10-19T10:57:06.831Z,60.88
2022-10-19T10:59:44.712Z,60.57
2022-10-19T11:02:27.274Z,61.02
2022-10-19T11:05:00.195Z,60.85
2022-10-19T11:07:31.031Z,61.24
2022-10-19T11:10:02.516Z,58.56
2022-10-19T11:12:36.992Z,59.98
2022-10-19T11:15:16.221Z,59.04
2022-10-19T11:17:56.617Z,59.86
2022-10-19T11:20:30.817Z,58.67
2022-10-19T11:23:09.100Z,60.61
2022-10-19T11:25:50.712Z,60.91
2022-10-19T11:28:29.964Z,62.11
2022-10-19T11:31:07.847Z,60.94
2022-10-19T11:33:47.295Z,59.78
2022-10-19T11:36:30.866Z,59.54
2022-10-19T11:39:13.881Z,59.17
2022-10-19T11:41:52.107Z,61.33
2022-10-19T11:44:38.716Z,60.55
2022-10-19T11:47:29.353Z,62.09
2022-10-19T11:52:51.181Z,62.00
2022-10-19T11:55:31.428Z,61.90
2022-10-19T11:58:10.455Z,59.98
2022-10-19T12:00:50.023Z,61.69
2022-10-19T12:03:48.375Z,62.39
2022-10-19T12:06:22.919Z,61.21
2022-10-19T12:09:07.616Z,62.12
2022-10-19T12:11:46.285Z,62.32
2022-10-19T12:14:18.622Z,61.69
2022-10-19T12:16:49.802Z,62.18
2022-10-19T12:19:23.447Z,62.08
2022-10-19T12:21:54.166Z,62.72
2022-10-19T12:24:24.956Z,62.83
2022-10-19T12:26:55.442Z,62.15
2022-10-19T12:29:26.738Z,59.55
2022-10-19T12:31:56.384Z,59.36
2022-10-19T12:34:37.301Z,59.06
2022-10-19T12:37:11.843Z,61.58
2022-10-19T12:39:44.353Z,60.88
2022-10-19T12:42:22.776Z,63.04
2022-10-19T12:45:11.885Z,62.60
2022-10-19T12:47:39.621Z,62.16
2022-10-19T12:50:09.250Z,61.84
2022-10-19T12:52:41.093Z,61.77
2022-10-19T12:55:26.617Z,62.50
2022-10-19T12:58:01.180Z,62.07
2022-10-19T13:00:31.930Z,62.39
2022-10-19T13:03:03.217Z,62.34
2022-10-19T13:05:33.834Z,63.67
2022-10-19T13:08:03.486Z,62.32
2022-10-19T13:10:33.415Z,62.83
2022-10-19T13:13:03.077Z,64.07
2022-10-19T13:15:58.199Z,65.22
2022-10-19T13:19:05.993Z,63.86
2022-10-19T13:22:12.912Z,62.17
2022-10-19T13:24:42.207Z,62.96
2022-10-19T13:27:37.616Z,63.67
2022-10-19T13:30:07.243Z,63.71
2022-10-19T13:32:44.296Z,63.28
2022-10-19T13:35:32.488Z,63.53
2022-10-19T13:38:27.369Z,64.35
2022-10-19T13:41:06.058Z,64.28
2022-10-19T13:43:38.431Z,63.65
2022-10-19T13:46:19.427Z,63.22
2022-10-19T13:49:10.445Z,64.18
2022-10-19T13:51:47.757Z,64.06
2022-10-19T13:54:32.402Z,64.05
2022-10-19T13:57:15.185Z,64.89
2022-10-19T14:00:01.561Z,65.56
2022-10-19T14:02:55.188Z,65.68
2022-10-19T14:05:44.943Z,65.85
2022-10-19T14:08:29.479Z,65.82
2022-10-19T14:11:01.661Z,65.75
2022-10-19T14:13:31.375Z,65.88
2022-10-19T14:16:02.840Z,66.02
2022-10-19T14:18:33.120Z,66.25
2022-10-19T14:21:02.943Z,65.56
2022-10-19T14:23:33.059Z,66.08
2022-10-19T14:26:04.817Z,66.28
2022-10-19T14:28:34.775Z,66.70
2022-10-19T14:31:05.794Z,66.14
2022-10-19T14:33:36.417Z,66.31
2022-10-19T14:36:04.240Z,66.62
2022-10-19T14:38:36.230Z,67.64
2022-10-19T14:41:05.693Z,67.43
2022-10-19T14:43:35.770Z,68.22
2022-10-19T14:46:15.245Z,68.56
2022-10-19T14:48:46.046Z,68.14
2022-10-19T14:51:24.487Z,67.92
2022-10-19T14:53:57.795Z,68.96
2022-10-19T14:56:30.367Z,68.91
2022-10-19T14:59:01.967Z,68.98
2022-10-19T15:01:29.779Z,68.47
2022-10-19T15:03:58.029Z,68.43
2022-10-19T15:06:29.457Z,68.51
2022-10-19T15:09:00.873Z,68.68
2022-10-19T15:11:31.409Z,68.81
2022-10-19T15:14:04.528Z,68.07
2022-10-19T15:16:42.317Z,69.36
2022-10-19T15:19:17.668Z,69.07
2022-10-19T15:21:45.312Z,69.23
2022-10-19T15:24:27.225Z,69.97
2022-10-19T15:27:08.749Z,69.97
2022-10-19T15:29:40.178Z,70.23
2022-10-19T15:32:15.502Z,70.40
2022-10-19T15:34:44.683Z,70.33
2022-10-19T15:37:19.419Z,71.51
2022-10-19T15:39:47.883Z,71.66
2022-10-19T15:42:44.135Z,71.21
2022-10-19T15:45:33.660Z,71.83
2022-10-19T15:48:29.211Z,72.79
2022-10-19T15:50:58.421Z,72.21
2022-10-19T15:53:26.478Z,71.99
2022-10-19T15:55:54.536Z,72.71
2022-10-19T15:58:22.238Z,73.09
2022-10-19T16:00:51.334Z,73.49
2022-10-19T16:03:19.263Z,73.44
2022-10-19T16:05:47.188Z,73.75
2022-10-19T16:08:15.193Z,73.24
2022-10-19T16:10:42.915Z,74.34
2022-10-19T16:13:10.604Z,74.37
2022-10-19T16:15:38.321Z,74.07
2022-10-19T16:18:07.410Z,74.41
2022-10-19T16:20:35.091Z,74.09
2022-10-19T16:23:03.109Z,74.63
2022-10-19T16:25:30.932Z,75.20
2022-10-19T16:27:58.579Z,75.47
2022-10-19T16:30:26.420Z,75.40
2022-10-19T16:32:54.118Z,76.04
2022-10-19T16:35:23.832Z,75.65
2022-10-19T16:37:51.583Z,76.25
2022-10-19T16:40:19.297Z,76.58
2022-10-19T16:42:46.982Z,76.82
2022-10-19T16:45:14.733Z,77.39
2022-10-19T16:47:42.490Z,77.08
2022-10-19T16:50:12.095Z,76.97
2022-10-19T16:52:41.340Z,76.14
2022-10-19T16:55:09.883Z,76.21
2022-10-19T16:57:37.936Z,76.00
2022-10-19T17:00:09.381Z,76.30
2022-10-19T17:02:41.839Z,76.31
2022-10-19T17:05:12.271Z,76.84
2022-10-19T17:07:41.424Z,77.26
2022-10-19T17:10:09.836Z,77.74
2022-10-19T17:12:40.650Z,78.13
2022-10-19T17:15:40.893Z,77.93
2022-10-19T17:17:57.946Z,78.70
2022-10-19T17:20:25.876Z,79.18
2022-10-19T17:22:55.143Z,80.20
2022-10-19T17:25:22.857Z,80.83
2022-10-19T17:27:51.251Z,81.77
2022-10-19T17:30:19.874Z,82.56
2022-10-19T17:32:47.917Z,82.88
2022-10-19T17:35:15.835Z,83.51
2022-10-19T17:37:43.552Z,84.45
2022-10-19T17:40:13.766Z,84.85
2022-10-19T17:42:41.685Z,85.06
2022-10-19T17:45:10.361Z,85.61
2022-10-19T17:47:38.410Z,85.82
2022-10-19T17:50:07.144Z,85.93
2022-10-19T17:52:34.951Z,86.76
2022-10-19T17:55:18.240Z,86.31
2022-10-19T17:57:47.414Z,87.02
2022-10-19T18:00:16.085Z,87.35
2022-10-19T18:02:45.460Z,87.18
2022-10-19T18:05:13.622Z,87.58
2022-10-19T18:07:44.071Z,87.72
2022-10-19T18:10:11.786Z,87.61
2022-10-19T18:12:39.652Z,87.54
2022-10-19T18:15:09.727Z,87.70
2022-10-19T18:17:37.830Z,88.04
2022-10-19T18:20:06.771Z,88.00
2022-10-19T18:22:34.631Z,88.10
2022-10-19T18:25:02.550Z,88.33
2022-10-19T18:27:30.340Z,88.17
2022-10-19T18:29:58.106Z,88.73
2022-10-19T18:32:27.206Z,88.69
2022-10-19T18:34:54.923Z,88.87
2022-10-19T18:37:22.702Z,88.85
2022-10-19T18:39:50.407Z,88.98
2022-10-19T18:42:18.787Z,89.28
2022-10-19T18:44:47.293Z,89.86
2022-10-19T18:47:15.071Z,89.54
2022-10-19T18:49:44.352Z,89.34
2022-10-19T18:52:12.006Z,89.53
2022-10-19T18:54:39.950Z,89.66
2022-10-19T18:57:07.720Z,90.37
2022-10-19T18:59:35.420Z,90.51
2022-10-19T19:02:03.135Z,91.15
2022-10-19T19:04:30.962Z,91.00
2022-10-19T19:07:00.099Z,91.57
2022-10-19T19:09:27.836Z,91.62
2022-10-19T19:11:58.085Z,92.50
2022-10-19T19:14:26.465Z,92.58
2022-10-19T19:16:54.320Z,93.01
2022-10-19T19:19:24.325Z,93.52
2022-10-19T19:21:52.549Z,93.21
2022-10-19T19:24:23.174Z,93.46
2022-10-19T19:26:53.386Z,93.46
2022-10-19T19:29:22.157Z,93.63
2022-10-19T19:31:50.027Z,93.39
2022-10-19T19:34:18.285Z,94.16
2022-10-19T19:36:48.509Z,94.50
2022-10-19T19:39:18.614Z,94.18
2022-10-19T19:41:48.224Z,93.85
2022-10-19T19:44:15.995Z,93.94
2022-10-19T19:46:43.959Z,94.18
2022-10-19T19:49:12.031Z,93.85
2022-10-19T19:51:39.852Z,93.94
2022-10-19T19:54:07.527Z,93.70
2022-10-19T19:56:37.127Z,94.08
2022-10-19T19:59:06.240Z,94.34
2022-10-19T20:01:34.071Z,93.93
2022-10-19T20:06:36.666Z,94.04
2022-10-19T20:09:05.617Z,94.20
2022-10-19T20:11:36.016Z,94.70
2022-10-19T20:14:06.367Z,94.53
2022-10-19T20:16:34.367Z,94.86
2022-10-19T20:19:07.461Z,94.73
2022-10-19T20:21:35.433Z,95.01
2022-10-19T20:24:04.197Z,95.39
2022-10-19T20:26:32.481Z,94.93
2022-10-19T20:29:02.031Z,95.43
2022-10-19T20:31:33.235Z,96.16
2022-10-19T20:34:01.086Z,96.77
2022-10-19T20:36:28.854Z,97.18
2022-10-19T20:38:58.204Z,97.10
2022-10-19T20:41:27.398Z,97.51
2022-10-19T20:43:55.798Z,97.41
2022-10-19T20:46:26.108Z,97.83
2022-10-19T20:48:56.357Z,98.52
2022-10-19T20:51:30.557Z,98.95
2022-10-19T20:54:01.647Z,98.99
2022-10-19T20:56:32.868Z,98.95
2022-10-19T21:01:33.671Z,99.07
2022-10-19T21:04:04.792Z,98.54
2022-10-19T21:06:34.884Z,98.92
2022-10-19T21:09:03.010Z,99.02
2022-10-19T21:11:32.363Z,99.24
2022-10-19T21:14:01.907Z,99.27
2022-10-19T21:16:33.483Z,99.22
2022-10-19T21:19:04.239Z,99.67
2022-10-19T21:21:34.341Z,100.00
2022-10-19T21:24:04.901Z,100.00
2022-10-19T21:26:34.161Z,100.00
2022-10-19T21:29:02.516Z,100.00
2022-10-19T21:31:30.823Z,100.00
2022-10-19T21:33:58.581Z,100.00
2022-10-19T21:36:27.827Z,100.00
2022-10-19T21:38:55.513Z,100.00
2022-10-19T21:41:26.218Z,100.00
2022-10-19T21:43:54.539Z,100.00
2022-10-19T21:46:24.039Z,100.00
2022-10-19T21:48:52.490Z,100.00
2022-10-19T21:51:31.744Z,100.00
2022-10-19T21:54:00.378Z,100.00
2022-10-19T21:56:28.867Z,100.00
2022-10-19T21:58:56.641Z,100.00
2022-10-19T22:01:26.659Z,100.00
2022-10-19T22:03:58.673Z,100.00
2022-10-19T22:06:29.516Z,100.00
2022-10-19T22:08:58.260Z,100.00
2022-10-19T22:11:26.999Z,100.00
2022-10-19T22:13:56.425Z,100.00
2022-10-19T22:16:24.813Z,100.00
2022-10-19T22:18:53.418Z,100.00
2022-10-19T22:21:23.230Z,100.00
2022-10-19T22:23:54.442Z,100.00
2022-10-19T22:26:24.679Z,100.00
2022-10-19T22:28:53.453Z,100.00
2022-10-19T22:31:21.510Z,100.00
2022-10-19T22:33:49.449Z,100.00
2022-10-19T22:36:17.639Z,100.00
2022-10-19T22:38:45.704Z,100.00
2022-10-19T22:41:14.876Z,100.00
2022-10-19T22:43:42.754Z,100.00
2022-10-19T22:46:10.623Z,100.00
2022-10-19T22:48:38.637Z,100.00
2022-10-19T22:51:06.470Z,100.00
2022-10-19T22:53:34.234Z,100.00
2022-10-19T22:56:02.535Z,100.00
2022-10-19T22:58:31.775Z,100.00
2022-10-19T23:01:04.710Z,100.00
2022-10-19T23:03:32.630Z,100.00
2022-10-19T23:06:00.633Z,100.00
2022-10-19T23:08:28.617Z,100.00
2022-10-19T23:10:56.653Z,100.00
2022-10-19T23:13:24.955Z,100.00
2022-10-19T23:15:54.191Z,100.00
2022-10-19T23:18:22.529Z,100.00
2022-10-19T23:20:55.201Z,100.00
2022-10-19T23:23:23.065Z,100.00
2022-10-19T23:26:01.745Z,100.00
2022-10-19T23:28:30.253Z,100.00
2022-10-19T23:31:00.474Z,100.00
2022-10-19T23:33:28.357Z,100.00
2022-10-19T23:35:56.124Z,100.00
2022-10-19T23:38:23.981Z,100.00
2022-10-19T23:40:51.779Z,100.00
2022-10-19T23:43:19.571Z,100.00
2022-10-19T23:45:47.445Z,100.00
2022-10-19T23:48:16.666Z,100.00
2022-10-19T23:50:44.543Z,100.00
2022-10-19T23:53:12.411Z,100.00
2022-10-19T23:55:40.258Z,100.00
2022-10-19T23:58:08.242Z,100.00
